Time;durP1;ratioP1;P1;durP2;ratioP2;P2;SDS_P1;SDS_P2;PMS_P1;PMS_P2;Temp;Humidity;BMP_temperature;BMP_pressure;BME280_temperature;BME280_humidity;BME280_pressure;Samples;Min_cycle;Max_cycle;Signal;HPM_P1;HPM_P2
2023/10/28 00:02:14;;;;;;;2.35;0.80;;;;;;;8.95;100.00;95715.13;5043661;28;20063;-64
2023/10/28 00:04:41;;;;;;;3.05;1.08;;;;;;;8.95;100.00;95707.84;5043389;28;20095;-64
2023/10/28 00:07:08;;;;;;;5.07;1.40;;;;;;;8.96;100.00;95717.53;5049840;28;20048;-64
2023/10/28 00:09:34;;;;;;;5.80;1.70;;;;;;;8.93;100.00;95714.63;5036286;28;20037;-64
2023/10/28 00:12:01;;;;;;;5.85;2.58;;;;;;;9.02;100.00;95721.00;5042873;28;20086;-64
2023/10/28 00:14:27;;;;;;;3.63;1.55;;;;;;;8.97;100.00;95721.88;5047673;28;20675;-64
2023/10/28 00:16:54;;;;;;;3.20;1.35;;;;;;;8.82;100.00;95727.38;5043048;28;20068;-65
2023/10/28 00:19:21;;;;;;;9.75;3.95;;;;;;;8.86;100.00;95728.44;5046144;28;20574;-64
2023/10/28 00:21:48;;;;;;;2.80;0.80;;;;;;;8.84;100.00;95734.09;5041788;28;20037;-64
2023/10/28 00:24:14;;;;;;;8.48;2.80;;;;;;;8.82;100.00;95735.47;5042849;28;20037;-64
2023/10/28 00:26:41;;;;;;;1.08;0.40;;;;;;;8.76;100.00;95732.00;5046592;28;20483;-64
2023/10/28 00:29:08;;;;;;;2.60;0.90;;;;;;;8.77;100.00;95740.91;5045102;28;20041;-64
2023/10/28 00:31:35;;;;;;;4.93;1.83;;;;;;;8.85;100.00;95746.50;5043521;28;20109;-64
2023/10/28 00:34:01;;;;;;;1.90;0.57;;;;;;;8.83;100.00;95745.19;5047708;28;20048;-64
2023/10/28 00:36:28;;;;;;;3.05;1.35;;;;;;;8.81;100.00;95752.75;5042255;28;20397;-64
2023/10/28 00:38:55;;;;;;;5.57;1.95;;;;;;;8.87;100.00;95751.63;5045600;28;20033;-64
2023/10/28 00:41:21;;;;;;;3.30;1.17;;;;;;;8.81;100.00;95750.06;5039024;28;20041;-64
2023/10/28 00:43:48;;;;;;;0.52;0.20;;;;;;;8.79;100.00;95754.91;5044544;28;20044;-65
2023/10/28 00:46:15;;;;;;;2.35;0.55;;;;;;;8.70;100.00;95762.81;5043690;28;20056;-64
2023/10/28 00:48:42;;;;;;;1.35;0.50;;;;;;;8.71;100.00;95759.81;5045169;28;20045;-64
2023/10/28 00:51:09;;;;;;;1.20;0.40;;;;;;;8.70;100.00;95763.59;5046188;28;20220;-64
2023/10/28 00:53:36;;;;;;;1.15;0.60;;;;;;;8.79;100.00;95769.22;5047465;28;20036;-64
2023/10/28 00:56:03;;;;;;;1.08;0.35;;;;;;;8.82;100.00;95765.94;5045548;28;20034;-64
2023/10/28 00:58:31;;;;;;;0.77;0.30;;;;;;;8.83;100.00;95762.19;5038987;28;20551;-64
2023/10/28 01:00:58;;;;;;;1.10;0.50;;;;;;;8.91;100.00;95760.78;5043018;28;20041;-64
2023/10/28 01:03:25;;;;;;;1.08;0.40;;;;;;;8.75;100.00;95770.06;5038290;28;20243;-65
2023/10/28 01:05:52;;;;;;;0.22;0.22;;;;;;;8.61;100.00;95773.38;5049419;28;20049;-64
2023/10/28 01:08:18;;;;;;;0.73;0.20;;;;;;;8.57;100.00;95767.75;5043905;28;20044;-64
2023/10/28 01:10:45;;;;;;;2.00;0.40;;;;;;;8.54;100.00;95765.59;5049501;28;20044;-64
2023/10/28 01:13:12;;;;;;;1.60;0.22;;;;;;;8.64;100.00;95774.72;5044865;28;20119;-65
2023/10/28 01:15:39;;;;;;;0.55;0.30;;;;;;;8.68;100.00;95773.06;5044951;28;20041;-64
2023/10/28 01:18:06;;;;;;;0.65;0.22;;;;;;;8.74;100.00;95771.97;5049801;28;20130;-65
2023/10/28 01:20:33;;;;;;;1.55;0.30;;;;;;;8.70;100.00;95774.41;5039954;28;20408;-64
2023/10/28 01:22:59;;;;;;;0.30;0.30;;;;;;;8.60;100.00;95777.16;5046627;28;20055;-64
2023/10/28 01:25:26;;;;;;;0.75;0.38;;;;;;;8.69;100.00;95774.69;5044887;28;20761;-64
2023/10/28 01:27:53;;;;;;;0.60;0.28;;;;;;;8.50;100.00;95772.59;5047689;28;20548;-65
2023/10/28 01:30:20;;;;;;;1.23;0.40;;;;;;;8.53;100.00;95776.66;5043868;28;20037;-65
2023/10/28 01:32:46;;;;;;;1.85;0.40;;;;;;;8.49;100.00;95776.38;5043353;28;20048;-64
2023/10/28 01:35:13;;;;;;;0.65;0.22;;;;;;;8.50;100.00;95774.47;5047337;28;20125;-64
2023/10/28 01:37:41;;;;;;;0.55;0.45;;;;;;;8.48;100.00;95782.88;5041030;28;20075;-64
2023/10/28 01:40:14;;;;;;;0.25;0.20;;;;;;;8.65;100.00;95782.53;5041117;28;20129;-64
2023/10/28 01:42:42;;;;;;;0.45;0.30;;;;;;;8.68;100.00;95781.16;5038292;28;20065;-64
2023/10/28 01:45:10;;;;;;;0.45;0.20;;;;;;;8.54;100.00;95781.78;5047105;28;20033;-64
2023/10/28 01:47:38;;;;;;;0.40;0.20;;;;;;;8.55;100.00;95785.31;5045755;28;20044;-64
2023/10/28 01:50:06;;;;;;;0.20;0.20;;;;;;;8.61;100.00;95781.47;5039802;28;20033;-64
2023/10/28 01:52:33;;;;;;;0.80;0.35;;;;;;;8.53;100.00;95790.97;5035341;28;20090;-64
2023/10/28 01:54:59;;;;;;;0.30;0.20;;;;;;;8.66;100.00;95794.13;5045157;28;20523;-64
2023/10/28 01:57:26;;;;;;;0.28;0.17;;;;;;;8.63;100.00;95789.28;5041001;28;20048;-64
2023/10/28 01:59:53;;;;;;;1.65;0.20;;;;;;;8.56;100.00;95795.78;5043903;28;20060;-64
2023/10/28 02:02:19;;;;;;;2.05;0.30;;;;;;;8.66;100.00;95799.53;5047108;28;20041;-64
2023/10/28 02:04:47;;;;;;;0.73;0.20;;;;;;;8.57;100.00;95793.91;5048314;28;20116;-65
2023/10/28 02:07:13;;;;;;;4.05;0.70;;;;;;;8.52;100.00;95786.59;5043943;28;20037;-62
2023/10/28 02:09:40;;;;;;;1.48;0.45;;;;;;;8.47;100.00;95792.03;5041712;28;20548;-62
2023/10/28 02:12:06;;;;;;;5.38;0.45;;;;;;;8.59;100.00;95791.75;5042226;28;20040;-62
2023/10/28 02:14:33;;;;;;;0.40;0.22;;;;;;;8.53;100.00;95795.53;5044718;28;20040;-64
2023/10/28 02:17:00;;;;;;;0.77;0.25;;;;;;;8.44;100.00;95801.50;5050343;28;20073;-62
2023/10/28 02:19:27;;;;;;;1.25;0.28;;;;;;;8.41;100.00;95798.53;5038755;28;20052;-62
2023/10/28 02:21:58;;;;;;;0.30;0.20;;;;;;;8.31;100.00;95799.38;5040705;28;20060;-63
2023/10/28 02:24:41;;;;;;;1.13;0.30;;;;;;;8.26;100.00;95794.03;5038974;28;20049;-62
2023/10/28 02:27:08;;;;;;;0.88;0.40;;;;;;;8.21;100.00;95797.53;5040193;28;20037;-63
2023/10/28 02:29:37;;;;;;;1.17;0.30;;;;;;;8.09;100.00;95799.72;5042971;28;20739;-63
2023/10/28 02:32:09;;;;;;;0.30;0.30;;;;;;;8.06;100.00;95798.41;5046274;28;20041;-63
2023/10/28 02:34:36;;;;;;;0.73;0.35;;;;;;;8.01;100.00;95801.94;5047266;28;20465;-63
2023/10/28 02:37:04;;;;;;;2.55;0.40;;;;;;;8.01;100.00;95801.13;5046630;28;20535;-63
2023/10/28 02:39:30;;;;;;;1.30;0.30;;;;;;;7.98;100.00;95812.44;5031505;28;20036;-63
2023/10/28 02:41:57;;;;;;;1.27;0.40;;;;;;;7.85;100.00;95811.94;5048766;28;20045;-63
2023/10/28 02:44:24;;;;;;;1.80;0.30;;;;;;;7.78;100.00;95811.41;5044113;28;20055;-63
2023/10/28 02:46:50;;;;;;;0.65;0.38;;;;;;;7.72;100.00;95805.22;5043968;28;20455;-63
2023/10/28 02:49:17;;;;;;;2.15;0.50;;;;;;;7.57;100.00;95811.44;5045360;28;20055;-63
2023/10/28 02:51:44;;;;;;;2.28;1.00;;;;;;;7.60;100.00;95812.78;5042142;28;20703;-63
2023/10/28 02:54:11;;;;;;;2.72;0.80;;;;;;;7.65;100.00;95800.13;5048790;28;20036;-63
2023/10/28 02:56:38;;;;;;;1.63;0.70;;;;;;;7.67;100.00;95800.66;5037158;28;20071;-63
2023/10/28 02:59:06;;;;;;;2.85;0.70;;;;;;;7.84;100.00;95804.09;5047570;28;20037;-63
2023/10/28 03:01:36;;;;;;;3.13;0.60;;;;;;;8.04;100.00;95797.88;5049962;28;20493;-63
2023/10/28 03:04:03;;;;;;;2.92;0.90;;;;;;;8.17;100.00;95794.59;5050635;28;20045;-63
2023/10/28 03:06:30;;;;;;;4.50;0.77;;;;;;;8.24;100.00;95799.69;5043304;28;20415;-62
2023/10/28 03:08:57;;;;;;;2.50;0.80;;;;;;;8.25;100.00;95795.91;5045833;28;20052;-63
2023/10/28 03:11:23;;;;;;;5.57;1.42;;;;;;;8.37;100.00;95787.47;5046253;28;20041;-63
2023/10/28 03:13:50;;;;;;;3.05;0.73;;;;;;;8.39;100.00;95798.00;5042857;28;20058;-63
2023/10/28 03:16:17;;;;;;;3.20;0.77;;;;;;;8.35;100.00;95797.75;5044716;28;20468;-63
2023/10/28 03:18:43;;;;;;;2.15;0.80;;;;;;;8.32;100.00;95804.50;5046175;28;20037;-63
2023/10/28 03:21:10;;;;;;;3.92;0.70;;;;;;;8.38;100.00;95810.69;5045168;28;20048;-63
2023/10/28 03:23:36;;;;;;;2.92;0.57;;;;;;;8.34;100.00;95809.63;5044710;28;20044;-63
2023/10/28 03:26:06;;;;;;;2.65;0.60;;;;;;;8.42;100.00;95819.03;5050875;28;20045;-63
2023/10/28 03:28:33;;;;;;;5.60;0.90;;;;;;;8.43;100.00;95809.84;5043617;28;20046;-63
2023/10/28 03:31:06;;;;;;;4.53;0.98;;;;;;;8.47;100.00;95813.59;5049093;28;20068;-63
2023/10/28 03:33:33;;;;;;;2.38;0.77;;;;;;;8.54;100.00;95816.03;5043925;28;20036;-62
2023/10/28 03:36:00;;;;;;;2.95;0.68;;;;;;;8.58;100.00;95817.09;5053019;28;20102;-62
2023/10/28 03:38:26;;;;;;;2.40;0.60;;;;;;;8.54;100.00;95810.63;5046298;28;20040;-63
2023/10/28 03:40:53;;;;;;;3.72;1.25;;;;;;;8.41;100.00;95820.91;5043616;28;20492;-63
2023/10/28 03:43:20;;;;;;;5.65;1.33;;;;;;;8.34;100.00;95815.03;5044981;28;20475;-62
2023/10/28 03:45:48;;;;;;;6.68;1.20;;;;;;;8.35;100.00;95818.50;5041760;28;20552;-63
2023/10/28 03:48:14;;;;;;;3.10;0.90;;;;;;;8.37;100.00;95806.38;5042371;28;20033;-63
2023/10/28 03:50:41;;;;;;;3.90;1.08;;;;;;;8.33;100.00;95814.22;5046568;28;20106;-63
2023/10/28 03:53:08;;;;;;;4.80;1.10;;;;;;;8.34;100.00;95815.03;5029986;28;20136;-62
2023/10/28 03:55:34;;;;;;;4.32;1.00;;;;;;;8.36;100.00;95823.63;5058475;28;20037;-63
2023/10/28 03:58:02;;;;;;;2.88;0.90;;;;;;;8.33;100.00;95814.22;5051526;28;20064;-63
2023/10/28 04:00:29;;;;;;;4.55;0.70;;;;;;;8.30;100.00;95813.97;5043592;28;20709;-63
2023/10/28 04:02:55;;;;;;;4.15;0.80;;;;;;;8.26;100.00;95816.38;5047743;28;20484;-63
2023/10/28 04:05:22;;;;;;;2.00;0.95;;;;;;;8.26;100.00;95819.09;5040488;28;20048;-63
2023/10/28 04:07:48;;;;;;;3.00;0.70;;;;;;;8.27;100.00;95819.91;5040576;28;20045;-63
2023/10/28 04:10:15;;;;;;;5.97;1.45;;;;;;;8.32;100.00;95826.09;5046826;28;20041;-62
2023/10/28 04:12:42;;;;;;;7.85;0.98;;;;;;;8.30;100.00;95824.75;5044655;28;20048;-63
2023/10/28 04:15:09;;;;;;;3.10;0.93;;;;;;;8.29;100.00;95829.31;5043219;28;20037;-63
2023/10/28 04:17:36;;;;;;;7.53;1.00;;;;;;;8.32;100.00;95823.38;5042238;28;20037;-62
2023/10/28 04:20:03;;;;;;;3.28;0.90;;;;;;;8.33;100.00;95814.22;5044785;28;20049;-63
2023/10/28 04:22:29;;;;;;;4.40;1.00;;;;;;;8.39;100.00;95817.69;5043620;28;20056;-63
2023/10/28 04:24:56;;;;;;;4.28;1.02;;;;;;;8.37;100.00;95825.25;5047891;28;20048;-62
2023/10/28 04:27:23;;;;;;;3.53;0.98;;;;;;;8.33;100.00;95816.09;5046187;28;20068;-63
2023/10/28 04:29:50;;;;;;;2.30;0.95;;;;;;;8.33;100.00;95816.09;5046016;28;20056;-63
2023/10/28 04:32:20;;;;;;;4.20;1.13;;;;;;;8.32;100.00;95809.09;5050777;28;20048;-63
2023/10/28 04:34:47;;;;;;;3.63;0.85;;;;;;;8.32;100.00;95807.22;5038570;28;20142;-63
2023/10/28 04:37:24;;;;;;;2.95;1.00;;;;;;;8.37;100.00;95809.06;5040838;28;20464;-63
2023/10/28 04:39:51;;;;;;;4.03;0.80;;;;;;;8.39;100.00;95806.09;5043264;28;20033;-63
2023/10/28 04:42:18;;;;;;;3.00;0.88;;;;;;;8.42;100.00;95800.97;5049855;28;20127;-63
2023/10/28 04:44:45;;;;;;;2.25;1.00;;;;;;;8.57;100.00;95802.00;5047032;28;20049;-62
2023/10/28 04:47:12;;;;;;;3.22;0.80;;;;;;;8.56;100.00;95803.88;5047677;28;20531;-62
2023/10/28 04:49:39;;;;;;;3.15;0.70;;;;;;;8.57;100.00;95802.00;5045554;28;20115;-62
2023/10/28 04:52:08;;;;;;;3.53;0.60;;;;;;;8.59;100.00;95805.25;5048265;28;20094;-63
2023/10/28 04:54:35;;;;;;;3.80;0.70;;;;;;;8.58;100.00;95796.31;5039763;28;20127;-62
2023/10/28 04:57:03;;;;;;;3.63;0.70;;;;;;;8.63;100.00;95806.31;5041949;28;20479;-62
2023/10/28 04:59:30;;;;;;;5.72;1.17;;;;;;;8.61;100.00;95807.63;5040203;28;20107;-62
2023/10/28 05:01:57;;;;;;;6.18;1.50;;;;;;;8.60;100.00;95804.16;5046093;28;20060;-62
2023/10/28 05:04:24;;;;;;;4.68;1.52;;;;;;;8.53;100.00;95800.94;5042359;28;20051;-62
2023/10/28 05:06:52;;;;;;;3.80;1.20;;;;;;;8.43;100.00;95804.47;5047628;28;20113;-63
2023/10/28 05:09:20;;;;;;;3.47;1.10;;;;;;;8.47;100.00;95802.81;5043357;28;20451;-63
2023/10/28 05:11:51;;;;;;;3.45;1.40;;;;;;;8.28;100.00;95799.94;5043534;28;20053;-62
2023/10/28 05:14:18;;;;;;;2.20;0.65;;;;;;;8.09;100.00;95792.47;5048006;28;20037;-62
2023/10/28 05:16:44;;;;;;;2.95;0.70;;;;;;;8.13;100.00;95800.81;5044591;28;20049;-62
2023/10/28 05:19:11;;;;;;;2.47;0.70;;;;;;;8.17;100.00;95793.78;5040607;28;20496;-63
2023/10/28 05:21:37;;;;;;;2.72;0.82;;;;;;;8.10;100.00;95787.88;5039640;28;20666;-63
2023/10/28 05:24:04;;;;;;;5.55;0.80;;;;;;;8.12;100.00;95799.19;5044249;28;20036;-62
2023/10/28 05:26:31;;;;;;;4.00;0.80;;;;;;;7.97;100.00;95795.47;5038192;28;20045;-62
2023/10/28 05:28:58;;;;;;;1.77;0.63;;;;;;;8.11;100.00;95803.75;5045730;28;20044;-63
2023/10/28 05:31:25;;;;;;;2.25;0.60;;;;;;;8.11;100.00;95806.47;5031448;28;20060;-62
2023/10/28 05:33:52;;;;;;;3.90;0.93;;;;;;;8.01;100.00;95796.53;5035154;28;20095;-62
2023/10/28 05:36:19;;;;;;;4.88;1.23;;;;;;;7.88;100.00;95807.88;5043141;28;20036;-63
2023/10/28 05:38:45;;;;;;;3.42;0.80;;;;;;;7.72;100.00;95810.63;5041553;28;20045;-62
2023/10/28 05:41:12;;;;;;;2.92;0.70;;;;;;;7.70;100.00;95818.16;5047170;28;20043;-63
2023/10/28 05:43:38;;;;;;;5.13;1.00;;;;;;;7.77;100.00;95807.09;5042221;28;20106;-62
2023/10/28 05:46:05;;;;;;;4.07;0.80;;;;;;;7.70;100.00;95815.44;5042786;28;20044;-63
2023/10/28 05:48:32;;;;;;;3.88;0.80;;;;;;;7.70;100.00;95822.75;5040746;28;20043;-62
2023/10/28 05:50:59;;;;;;;4.32;1.17;;;;;;;7.72;100.00;95818.69;5044600;28;20032;-62
2023/10/28 05:53:26;;;;;;;2.45;1.05;;;;;;;7.65;100.00;95824.38;5044694;28;20037;-62
2023/10/28 05:55:53;;;;;;;3.45;0.77;;;;;;;7.72;100.00;95831.34;5049458;28;20091;-62
2023/10/28 05:58:20;;;;;;;2.25;0.60;;;;;;;7.77;100.00;95832.16;5048833;28;20088;-62
2023/10/28 06:00:46;;;;;;;4.55;0.60;;;;;;;7.83;100.00;95832.97;5042403;28;20052;-62
2023/10/28 06:03:13;;;;;;;2.58;0.80;;;;;;;7.80;100.00;95828.94;5046784;28;20052;-62
2023/10/28 06:05:39;;;;;;;6.07;0.98;;;;;;;7.83;100.00;95841.03;5040579;28;20053;-62
2023/10/28 06:08:08;;;;;;;3.13;0.93;;;;;;;7.78;100.00;95835.66;5039497;28;20051;-63
2023/10/28 06:10:35;;;;;;;2.90;0.70;;;;;;;7.84;100.00;95842.66;5039899;28;20532;-62
2023/10/28 06:13:01;;;;;;;3.70;0.98;;;;;;;7.90;100.00;95843.47;5048635;28;20060;-62
2023/10/28 06:15:28;;;;;;;7.20;1.33;;;;;;;7.86;100.00;95848.59;5049513;28;20172;-62
2023/10/28 06:17:57;;;;;;;1.38;0.60;;;;;;;7.92;100.00;95841.28;5046331;28;20431;-63
2023/10/28 06:20:23;;;;;;;2.42;0.90;;;;;;;7.94;100.00;95858.00;5045464;28;20033;-62
2023/10/28 06:22:50;;;;;;;5.97;1.33;;;;;;;8.06;100.00;95863.09;5048292;28;20122;-62
2023/10/28 06:25:16;;;;;;;2.25;0.98;;;;;;;7.98;100.00;95863.66;5048983;28;20550;-63
2023/10/28 06:27:43;;;;;;;4.60;1.00;;;;;;;8.03;100.00;95874.41;5051238;28;20068;-63
2023/10/28 06:30:11;;;;;;;4.65;1.10;;;;;;;8.01;100.00;95873.88;5047208;28;20041;-63
2023/10/28 06:32:41;;;;;;;4.28;1.00;;;;;;;8.02;100.00;95876.31;5048023;28;20044;-62
2023/10/28 06:35:08;;;;;;;3.53;0.93;;;;;;;8.07;100.00;95875.47;5049086;28;20059;-62
2023/10/28 06:37:39;;;;;;;6.00;1.20;;;;;;;8.07;100.00;95878.19;5062753;28;20040;-63
2023/10/28 06:40:09;;;;;;;3.67;1.00;;;;;;;8.20;100.00;95882.22;5046760;28;20041;-63
2023/10/28 06:42:39;;;;;;;3.30;0.80;;;;;;;8.27;100.00;95881.91;5048990;28;20037;-63
2023/10/28 06:45:06;;;;;;;1.00;0.57;;;;;;;8.26;100.00;95877.63;5049735;28;20090;-63
2023/10/28 06:47:36;;;;;;;2.22;0.70;;;;;;;8.32;100.00;95885.41;5047178;28;20037;-63
2023/10/28 06:50:06;;;;;;;4.10;1.00;;;;;;;8.31;100.00;95891.06;5050395;28;20037;-62
2023/10/28 06:52:33;;;;;;;3.78;1.23;;;;;;;8.38;100.00;95880.81;5045640;28;20037;-63
2023/10/28 06:55:01;;;;;;;3.30;0.80;;;;;;;8.34;100.00;95887.84;5047077;28;20048;-63
2023/10/28 06:57:30;;;;;;;2.55;0.65;;;;;;;8.37;100.00;95889.97;5044707;28;20507;-62
2023/10/28 06:59:58;;;;;;;2.30;0.70;;;;;;;8.57;100.00;95891.84;5046541;28;20738;-63
2023/10/28 07:02:25;;;;;;;1.63;0.75;;;;;;;8.69;100.00;95898.81;5046045;28;20114;-62
2023/10/28 07:04:52;;;;;;;5.82;1.42;;;;;;;8.83;100.00;95899.00;5047372;28;20110;-62
2023/10/28 07:07:19;;;;;;;4.13;1.10;;;;;;;8.77;100.00;95903.63;5039612;28;20045;-62
2023/10/28 07:09:46;;;;;;;7.72;1.73;;;;;;;8.77;100.00;95900.13;5041563;28;20389;-62
2023/10/28 07:12:13;;;;;;;5.75;1.38;;;;;;;8.81;100.00;95906.59;5048176;28;20047;-62
2023/10/28 07:14:40;;;;;;;5.75;1.27;;;;;;;8.88;100.00;95896.28;5045403;28;20056;-62
2023/10/28 07:17:06;;;;;;;3.95;0.95;;;;;;;8.95;100.00;95899.50;5045352;28;20496;-62
2023/10/28 07:19:33;;;;;;;4.88;1.10;;;;;;;8.96;100.00;95903.81;5048823;28;20049;-62
2023/10/28 07:21:59;;;;;;;2.88;0.80;;;;;;;8.96;100.00;95909.19;5048101;28;20075;-62
2023/10/28 07:24:26;;;;;;;2.50;0.90;;;;;;;9.00;100.00;95911.34;5048480;28;20047;-62
2023/10/28 07:26:52;;;;;;;5.40;0.98;;;;;;;9.00;100.00;95914.06;5044903;28;20139;-62
2023/10/28 07:29:19;;;;;;;2.70;0.77;;;;;;;8.99;100.00;95924.03;5045053;28;20059;-62
2023/10/28 07:31:47;;;;;;;3.45;1.15;;;;;;;9.01;100.00;95929.97;5047829;28;20509;-62
2023/10/28 07:34:14;;;;;;;5.40;0.88;;;;;;;9.17;100.00;95940.69;5043440;28;20051;-62
2023/10/28 07:36:41;;;;;;;3.45;1.30;;;;;;;9.26;100.00;95933.63;5041670;28;20048;-62
2023/10/28 07:39:09;;;;;;;1.88;0.80;;;;;;;9.38;100.00;95938.69;5046619;28;20041;-62
2023/10/28 07:41:36;;;;;;;3.53;0.82;;;;;;;9.48;100.00;95938.63;5041559;28;20037;-62
2023/10/28 07:44:03;;;;;;;1.67;1.00;;;;;;;9.54;100.00;95942.09;5039901;28;20053;-62
2023/10/28 07:46:30;;;;;;;2.45;0.90;;;;;;;9.70;100.00;95950.09;5041194;28;20041;-62
2023/10/28 07:48:56;;;;;;;4.25;0.70;;;;;;;9.81;100.00;95953.53;5049444;28;20151;-62
2023/10/28 07:51:24;;;;;;;2.75;0.80;;;;;;;9.92;100.00;95952.38;5046453;28;20040;-66
2023/10/28 07:53:52;;;;;;;3.90;0.82;;;;;;;10.02;100.00;95957.69;5054822;28;20500;-62
2023/10/28 07:56:19;;;;;;;2.58;0.88;;;;;;;10.06;100.00;95955.22;5048002;28;20124;-62
2023/10/28 07:58:47;;;;;;;4.72;1.30;;;;;;;10.15;100.00;95960.84;5043704;28;20452;-62
2023/10/28 08:01:17;;;;;;;3.20;0.88;;;;;;;10.35;100.00;95949.00;5049501;28;20095;-62
2023/10/28 08:03:47;;;;;;;5.15;0.80;;;;;;;10.45;100.00;95952.75;5043282;28;20053;-63
2023/10/28 08:06:14;;;;;;;1.85;0.70;;;;;;;10.52;100.00;95955.91;5057746;28;20420;-62
2023/10/28 08:08:59;;;;;;;4.75;0.98;;;;;;;10.61;100.00;95953.41;5046309;28;20207;-62
2023/10/28 08:11:28;;;;;;;3.78;0.75;;;;;;;10.66;100.00;95953.34;5046930;28;20045;-62
2023/10/28 08:13:55;;;;;;;4.20;0.82;;;;;;;10.83;100.00;95960.22;5042009;28;20045;-62
2023/10/28 08:16:23;;;;;;;4.25;0.70;;;;;;;10.85;100.00;95968.84;5041366;28;20124;-62
2023/10/28 08:18:50;;;;;;;3.63;1.00;;;;;;;10.89;100.00;95973.41;5044558;28;20123;-62
2023/10/28 08:21:19;;;;;;;6.50;0.95;;;;;;;10.91;100.00;95970.41;5039047;28;20099;-62
2023/10/28 08:23:46;;;;;;;3.35;0.80;;;;;;;11.05;100.00;95968.59;5036310;28;20044;-62
2023/10/28 08:26:17;;;;;;;3.58;0.70;;;;;;;11.00;100.00;95965.94;5049153;28;20036;-62
2023/10/28 08:28:46;;;;;;;4.28;1.00;;;;;;;11.12;100.00;95975.56;5043155;28;20040;-62
2023/10/28 08:31:13;;;;;;;4.28;0.73;;;;;;;11.15;100.00;95967.66;5040382;28;20047;-62
2023/10/28 08:33:41;;;;;;;3.67;0.90;;;;;;;11.21;100.00;95981.97;5043071;28;20045;-62
2023/10/28 08:36:12;;;;;;;2.20;0.63;;;;;;;11.26;99.28;95970.22;5039454;28;20054;-62
2023/10/28 08:38:38;;;;;;;4.03;0.95;;;;;;;11.25;99.90;95980.28;5045960;28;20064;-62
2023/10/28 08:41:05;;;;;;;5.07;0.90;;;;;;;11.34;100.00;95985.03;5045538;28;20051;-62
2023/10/28 08:43:35;;;;;;;3.95;1.00;;;;;;;11.28;98.86;95976.97;5037876;28;20282;-62
2023/10/28 08:46:04;;;;;;;4.00;0.90;;;;;;;11.30;98.97;95982.09;5040168;28;20040;-62
2023/10/28 08:48:36;;;;;;;4.20;0.63;;;;;;;11.31;97.66;95984.53;5039704;28;20041;-62
2023/10/28 08:51:06;;;;;;;3.10;0.60;;;;;;;11.44;98.41;95993.03;5040796;28;20045;-62
2023/10/28 08:53:34;;;;;;;4.22;0.90;;;;;;;11.42;96.57;95984.38;5044165;28;20045;-62
2023/10/28 08:56:02;;;;;;;3.65;0.80;;;;;;;11.58;97.18;95985.78;5041496;28;20049;-62
2023/10/28 08:58:29;;;;;;;3.13;0.60;;;;;;;11.63;95.68;95989.53;5039961;28;20053;-62
2023/10/28 09:00:59;;;;;;;6.13;0.80;;;;;;;11.58;93.58;95987.72;5061237;28;20053;-62
2023/10/28 09:03:27;;;;;;;3.05;0.68;;;;;;;11.61;93.13;95980.88;5037558;28;20045;-62
2023/10/28 09:05:54;;;;;;;5.40;0.70;;;;;;;11.67;93.14;95985.13;5043457;28;20102;-62
2023/10/28 09:08:21;;;;;;;3.10;1.20;;;;;;;11.66;92.74;95984.34;5025000;28;20744;-62
2023/10/28 09:10:48;;;;;;;3.65;0.75;;;;;;;11.59;92.63;95989.31;5044209;28;20571;-62
2023/10/28 09:13:15;;;;;;;5.28;0.90;;;;;;;11.74;92.09;95984.75;5043256;28;20408;-62
2023/10/28 09:15:42;;;;;;;4.80;1.35;;;;;;;11.78;92.71;95991.22;5044723;28;20901;-62
2023/10/28 09:18:09;;;;;;;4.28;0.77;;;;;;;11.74;92.09;95982.88;5042000;28;20247;-62
2023/10/28 09:20:41;;;;;;;4.30;1.30;;;;;;;11.71;92.72;95986.16;5034641;28;20821;-62
2023/10/28 09:23:07;;;;;;;4.78;1.58;;;;;;;11.80;92.55;95987.09;5047760;28;20129;-62
2023/10/28 09:25:36;;;;;;;3.22;0.63;;;;;;;11.91;91.77;95997.81;5049885;28;20058;-62
2023/10/28 09:28:07;;;;;;;3.30;0.85;;;;;;;11.88;91.05;95988.34;5047524;28;20068;-62
2023/10/28 09:30:47;;;;;;;5.35;0.90;;;;;;;11.84;91.91;95988.13;5047572;28;20046;-62
2023/10/28 09:33:15;;;;;;;2.95;0.95;;;;;;;11.87;91.63;95986.72;5038313;28;20040;-62
2023/10/28 09:35:44;;;;;;;4.03;0.80;;;;;;;11.89;90.98;95984.53;5039015;28;20060;-62
2023/10/28 09:38:12;;;;;;;2.58;0.60;;;;;;;11.92;90.57;95992.09;5039382;28;20564;-62
2023/10/28 09:40:39;;;;;;;4.25;0.70;;;;;;;11.82;92.00;95986.81;5039689;28;20041;-62
2023/10/28 09:43:06;;;;;;;3.83;0.95;;;;;;;11.87;92.46;95992.16;5042635;28;20065;-62
2023/10/28 09:45:35;;;;;;;2.65;0.60;;;;;;;12.00;91.22;95987.09;5039822;28;20246;-62
2023/10/28 09:48:12;;;;;;;3.03;0.80;;;;;;;12.08;90.55;95989.16;5046714;28;20045;-63
2023/10/28 09:50:48;;;;;;;2.03;0.60;;;;;;;12.04;90.40;95990.81;5039787;28;20127;-62
2023/10/28 09:53:33;;;;;;;4.78;1.08;;;;;;;12.10;90.87;96001.31;5046004;28;20071;-62
2023/10/28 09:56:04;;;;;;;2.38;0.60;;;;;;;12.21;90.65;95993.03;5056540;28;20045;-63
2023/10/28 09:58:46;;;;;;;4.78;0.88;;;;;;;12.34;89.84;95996.88;5055636;28;20063;-63
2023/10/28 10:01:21;;;;;;;4.28;0.98;;;;;;;12.47;89.31;95985.28;5047280;28;20124;-63
2023/10/28 10:04:11;;;;;;;3.00;0.70;;;;;;;12.53;87.44;95983.25;5045447;28;20068;-63
2023/10/28 10:06:38;;;;;;;2.95;0.63;;;;;;;12.53;86.77;95998.75;5040668;28;20049;-63
2023/10/28 10:09:08;;;;;;;1.80;0.60;;;;;;;12.56;87.54;95993.53;5055050;28;20045;-63
2023/10/28 10:11:40;;;;;;;3.53;0.95;;;;;;;12.64;87.71;96004.81;5046538;28;20090;-63
2023/10/28 10:14:13;;;;;;;4.28;0.85;;;;;;;12.84;85.08;96000.91;5045885;28;20056;-63
2023/10/28 10:16:58;;;;;;;2.13;0.50;;;;;;;12.86;85.06;96007.63;5047482;28;20041;-63
2023/10/28 10:19:35;;;;;;;3.53;0.65;;;;;;;12.93;84.39;95995.59;5045718;28;20051;-63
2023/10/28 10:22:03;;;;;;;4.80;0.98;;;;;;;12.80;84.82;95992.56;5049317;28;20534;-63
2023/10/28 10:24:30;;;;;;;4.80;0.93;;;;;;;12.72;86.80;95991.31;5053345;28;20044;-63
2023/10/28 10:27:01;;;;;;;3.00;1.23;;;;;;;12.87;86.41;95990.22;5052844;28;20045;-62
2023/10/28 10:29:40;;;;;;;3.25;0.80;;;;;;;12.86;85.00;95990.53;5048629;28;20037;-63
2023/10/28 10:32:17;;;;;;;3.85;0.73;;;;;;;12.77;85.63;95985.00;5048754;28;20044;-63
2023/10/28 10:34:45;;;;;;;5.75;1.13;;;;;;;12.77;85.48;95984.19;5051453;28;20060;-63
2023/10/28 10:37:25;;;;;;;3.33;1.00;;;;;;;12.93;85.75;96003.75;5044079;28;20041;-63
2023/10/28 10:39:54;;;;;;;3.40;1.00;;;;;;;12.82;84.25;96005.81;5048173;28;20155;-63
2023/10/28 10:42:20;;;;;;;6.15;0.70;;;;;;;12.83;84.71;96010.94;5050653;28;20047;-63
2023/10/28 10:44:47;;;;;;;5.47;1.80;;;;;;;12.83;83.82;96008.22;5049845;28;20045;-63
2023/10/28 10:47:17;;;;;;;6.15;1.55;;;;;;;12.74;84.68;96001.88;5044267;28;20060;-62
2023/10/28 10:49:44;;;;;;;5.80;0.70;;;;;;;12.78;84.68;96011.06;5045465;28;20052;-63
2023/10/28 10:52:11;;;;;;;5.53;0.88;;;;;;;12.72;84.60;96009.53;5051599;28;20093;-62
2023/10/28 10:54:39;;;;;;;4.15;0.90;;;;;;;12.60;85.18;96018.97;5047953;28;20147;-62
2023/10/28 10:57:09;;;;;;;2.78;0.80;;;;;;;12.57;85.15;95997.84;5048941;28;20083;-62
2023/10/28 10:59:40;;;;;;;8.68;0.88;;;;;;;12.56;85.60;96009.81;5045535;28;20049;-63
2023/10/28 11:02:10;;;;;;;2.22;0.70;;;;;;;12.64;86.23;96011.03;5043359;28;20037;-63
2023/10/28 11:04:37;;;;;;;5.75;0.85;;;;;;;12.60;85.56;96010.00;5037115;28;20048;-63
2023/10/28 11:07:06;;;;;;;4.05;0.88;;;;;;;12.66;85.10;96013.44;5043471;28;20097;-63
2023/10/28 11:09:33;;;;;;;8.32;1.17;;;;;;;12.63;84.32;96011.34;5042056;28;20045;-62
2023/10/28 11:12:00;;;;;;;4.20;0.93;;;;;;;12.58;85.49;96007.63;5047120;28;20048;-62
2023/10/28 11:14:27;;;;;;;3.65;1.02;;;;;;;12.51;85.48;96009.09;5044347;28;20041;-62
2023/10/28 11:16:54;;;;;;;5.00;1.88;;;;;;;12.45;85.31;96006.47;5042587;28;20051;-62
2023/10/28 11:19:21;;;;;;;3.63;0.93;;;;;;;12.48;86.62;96002.34;5045025;28;20102;-62
2023/10/28 11:21:48;;;;;;;6.47;1.65;;;;;;;12.45;89.18;96002.94;5044254;28;20103;-62
2023/10/28 11:24:16;;;;;;;4.75;1.08;;;;;;;12.45;89.82;95995.59;5042126;28;20124;-62
2023/10/28 11:26:46;;;;;;;6.55;1.00;;;;;;;12.56;90.06;96003.56;5039275;28;20057;-62
2023/10/28 11:29:16;;;;;;;5.03;1.20;;;;;;;12.54;90.83;95998.44;5041964;28;20048;-62
2023/10/28 11:31:42;;;;;;;6.97;1.05;;;;;;;12.46;92.81;95999.13;5043788;28;20051;-63
2023/10/28 11:34:09;;;;;;;5.72;1.17;;;;;;;12.31;91.33;95989.34;5046919;28;20495;-62
2023/10/28 11:36:37;;;;;;;4.55;1.13;;;;;;;12.26;91.40;95990.22;5047736;28;20045;-62
2023/10/28 11:39:13;;;;;;;5.53;1.02;;;;;;;12.26;90.45;95997.56;5042387;28;20655;-62